createdAt,value
2018-07-26T00:00:10.850Z,938.35
2018-07-26T00:01:10.817Z,938.38
2018-07-26T00:02:10.839Z,938.35
2018-07-26T00:03:10.827Z,938.33
2018-07-26T00:04:10.956Z,938.32
2018-07-26T00:05:10.881Z,938.32
2018-07-26T00:06:10.892Z,938.33
2018-07-26T00:07:10.985Z,938.33
2018-07-26T00:08:10.892Z,938.32
2018-07-26T00:09:10.896Z,938.29
2018-07-26T00:10:10.983Z,938.30
2018-07-26T00:11:10.956Z,938.27
2018-07-26T00:12:10.973Z,938.26
2018-07-26T00:13:10.945Z,938.25
2018-07-26T00:14:10.995Z,938.30
2018-07-26T00:15:11.181Z,938.33
2018-07-26T00:16:10.987Z,938.30
2018-07-26T00:17:11.007Z,938.38
2018-07-26T00:18:11.012Z,938.36
2018-07-26T00:19:11.022Z,938.38
2018-07-26T00:20:11.145Z,938.44
2018-07-26T00:21:11.260Z,938.46
2018-07-26T00:22:11.051Z,938.47
2018-07-26T00:23:11.109Z,938.50
2018-07-26T00:24:11.102Z,938.53
2018-07-26T00:25:11.122Z,938.53
2018-07-26T00:26:11.117Z,938.54
2018-07-26T00:27:11.195Z,938.55
2018-07-26T00:28:11.126Z,938.58
2018-07-26T00:29:11.143Z,938.59
2018-07-26T00:30:11.184Z,938.55
2018-07-26T00:31:11.193Z,938.53
2018-07-26T00:32:11.451Z,938.55
2018-07-26T00:33:11.178Z,938.56
2018-07-26T00:34:11.272Z,938.53
2018-07-26T00:35:11.217Z,938.52
2018-07-26T00:36:11.348Z,938.49
2018-07-26T00:37:11.373Z,938.51
2018-07-26T00:38:11.286Z,938.57
2018-07-26T00:39:11.263Z,938.60
2018-07-26T00:40:11.326Z,938.61
2018-07-26T00:41:11.296Z,938.67
2018-07-26T00:42:11.435Z,938.69
2018-07-26T00:43:11.370Z,938.66
2018-07-26T00:44:11.452Z,938.65
2018-07-26T00:45:11.324Z,938.62
2018-07-26T00:46:11.367Z,938.59
2018-07-26T00:47:11.562Z,938.54
2018-07-26T00:48:11.366Z,938.51
2018-07-26T00:49:11.379Z,938.48
2018-07-26T00:50:11.433Z,938.49
2018-07-26T00:51:11.421Z,938.53
2018-07-26T00:52:11.524Z,938.50
2018-07-26T00:53:11.465Z,938.52
2018-07-26T00:54:11.454Z,938.54
2018-07-26T00:55:11.485Z,938.50
2018-07-26T00:56:11.513Z,938.50
2018-07-26T00:57:11.700Z,938.53
2018-07-26T00:58:11.503Z,938.49
2018-07-26T00:59:11.584Z,938.48
2018-07-26T01:00:11.649Z,938.50
2018-07-26T01:01:11.558Z,938.50
2018-07-26T01:02:11.873Z,938.50
2018-07-26T01:03:11.592Z,938.50
2018-07-26T01:04:11.610Z,938.47
2018-07-26T01:05:11.578Z,938.46
2018-07-26T01:06:11.625Z,938.48
2018-07-26T01:07:11.825Z,938.52
2018-07-26T01:08:11.676Z,938.52
2018-07-26T01:09:11.628Z,938.54
2018-07-26T01:10:11.777Z,938.52
2018-07-26T01:11:11.790Z,938.49
2018-07-26T01:12:11.805Z,938.54
2018-07-26T01:13:11.718Z,938.49
2018-07-26T01:14:11.705Z,938.51
2018-07-26T01:15:11.706Z,938.47
2018-07-26T01:16:11.724Z,938.46
2018-07-26T01:17:11.779Z,938.46
2018-07-26T01:18:12.015Z,938.42
2018-07-26T01:19:11.813Z,938.47
2018-07-26T01:20:11.813Z,938.45
2018-07-26T01:21:11.798Z,938.44
2018-07-26T01:22:11.810Z,938.45
2018-07-26T01:23:12.023Z,938.47
2018-07-26T01:24:11.860Z,938.45
2018-07-26T01:25:11.876Z,938.44
2018-07-26T01:26:11.847Z,938.39
2018-07-26T01:28:12.196Z,938.40
2018-07-26T01:29:12.015Z,938.37
2018-07-26T01:30:11.905Z,938.36
2018-07-26T01:31:11.931Z,938.31
2018-07-26T01:32:11.946Z,938.26
2018-07-26T01:33:12.045Z,938.27
2018-07-26T01:34:11.955Z,938.27
2018-07-26T01:35:12.085Z,938.27
2018-07-26T01:36:11.982Z,938.30
2018-07-26T01:37:11.993Z,938.40
2018-07-26T01:38:12.411Z,938.39
2018-07-26T01:39:12.033Z,938.43
2018-07-26T01:40:12.068Z,938.47
2018-07-26T01:41:12.039Z,938.52
2018-07-26T01:42:12.042Z,938.51
2018-07-26T01:44:12.077Z,938.50
2018-07-26T01:45:12.091Z,938.46
2018-07-26T01:46:12.090Z,938.44
2018-07-26T01:47:12.118Z,938.39
2018-07-26T01:48:12.331Z,938.32
2018-07-26T01:49:12.140Z,938.33
2018-07-26T01:50:12.151Z,938.29
2018-07-26T01:51:12.179Z,938.28
2018-07-26T01:52:12.195Z,938.29
2018-07-26T01:53:12.409Z,938.28
2018-07-26T01:54:12.237Z,938.31
2018-07-26T01:55:12.215Z,938.34
2018-07-26T01:56:12.236Z,938.31
2018-07-26T01:57:12.260Z,938.33
2018-07-26T01:58:12.452Z,938.31
2018-07-26T01:59:12.266Z,938.34
2018-07-26T02:00:12.288Z,938.32
2018-07-26T02:02:12.299Z,938.31
2018-07-26T02:03:12.508Z,938.30
2018-07-26T02:04:12.448Z,938.29
2018-07-26T02:05:12.352Z,938.31
2018-07-26T02:06:12.423Z,938.33
2018-07-26T02:07:12.496Z,938.35
2018-07-26T02:08:12.589Z,938.34
2018-07-26T02:09:12.401Z,938.35
2018-07-26T02:10:12.451Z,938.33
2018-07-26T02:11:12.540Z,938.37
2018-07-26T02:12:12.425Z,938.33
2018-07-26T02:13:12.612Z,938.33
2018-07-26T02:14:12.446Z,938.28
2018-07-26T02:15:12.677Z,938.23
2018-07-26T02:16:12.490Z,938.23
2018-07-26T02:17:12.485Z,938.23
2018-07-26T02:18:12.512Z,938.27
2018-07-26T02:19:12.519Z,938.26
2018-07-26T02:20:12.754Z,938.27
2018-07-26T02:21:12.581Z,938.30
2018-07-26T02:22:12.588Z,938.30
2018-07-26T02:23:12.572Z,938.32
2018-07-26T02:24:12.608Z,938.31
2018-07-26T02:25:12.795Z,938.26
2018-07-26T02:26:12.615Z,938.26
2018-07-26T02:27:12.619Z,938.23
2018-07-26T02:28:12.648Z,938.21
2018-07-26T02:29:12.644Z,938.24
2018-07-26T02:30:12.865Z,938.20
2018-07-26T02:31:12.779Z,938.19
2018-07-26T02:32:12.687Z,938.21
2018-07-26T02:33:12.702Z,938.22
2018-07-26T02:34:12.708Z,938.21
2018-07-26T02:35:12.925Z,938.20
2018-07-26T02:36:12.724Z,938.21
2018-07-26T02:37:12.775Z,938.20
2018-07-26T02:38:12.755Z,938.17
2018-07-26T02:39:12.767Z,938.16
2018-07-26T02:40:12.973Z,938.12
2018-07-26T02:41:12.795Z,938.15
2018-07-26T02:42:12.924Z,938.17
2018-07-26T02:43:12.815Z,938.13
2018-07-26T02:44:12.890Z,938.15
2018-07-26T02:45:13.146Z,938.14
2018-07-26T02:46:12.859Z,938.14
2018-07-26T02:47:12.886Z,938.14
2018-07-26T02:48:12.892Z,938.11
2018-07-26T02:49:12.890Z,938.10
2018-07-26T02:50:13.003Z,938.12
2018-07-26T02:51:12.928Z,938.06
2018-07-26T02:52:12.939Z,938.04
2018-07-26T02:53:12.931Z,938.05
2018-07-26T02:54:13.012Z,938.08
2018-07-26T02:55:13.020Z,938.10
2018-07-26T02:56:13.025Z,938.07
2018-07-26T02:57:12.992Z,938.07
2018-07-26T02:58:13.126Z,938.10
2018-07-26T02:59:13.026Z,938.10
2018-07-26T03:00:13.224Z,938.14
2018-07-26T03:01:13.040Z,938.13
2018-07-26T03:02:13.071Z,938.15
2018-07-26T03:03:13.090Z,938.19
2018-07-26T03:04:13.090Z,938.15
2018-07-26T03:05:13.100Z,938.11
2018-07-26T03:06:13.197Z,938.12
2018-07-26T03:07:13.310Z,938.13
2018-07-26T03:08:13.119Z,938.09
2018-07-26T03:09:13.262Z,938.10
2018-07-26T03:10:13.162Z,938.10
2018-07-26T03:11:13.158Z,938.11
2018-07-26T03:12:13.240Z,938.11
2018-07-26T03:13:13.193Z,938.09
2018-07-26T03:14:13.217Z,938.11
2018-07-26T03:15:13.211Z,938.09
2018-07-26T03:16:13.274Z,938.13
2018-07-26T03:17:13.442Z,938.11
2018-07-26T03:18:13.298Z,938.10
2018-07-26T03:19:13.261Z,938.10
2018-07-26T03:20:13.295Z,938.11
2018-07-26T03:21:13.280Z,938.07
2018-07-26T03:22:13.433Z,938.06
2018-07-26T03:23:13.530Z,938.09
2018-07-26T03:24:13.338Z,938.06
2018-07-26T03:25:13.344Z,938.09
2018-07-26T03:26:13.374Z,938.07
2018-07-26T03:27:13.376Z,938.08
2018-07-26T03:28:13.595Z,938.11
2018-07-26T03:29:13.389Z,938.05
2018-07-26T03:30:13.426Z,938.05
2018-07-26T03:31:13.428Z,938.02
2018-07-26T03:32:13.448Z,938.00
2018-07-26T03:33:13.668Z,937.96
2018-07-26T03:34:13.584Z,937.96
2018-07-26T03:35:13.602Z,937.92
2018-07-26T03:36:13.485Z,937.91
2018-07-26T03:37:13.544Z,937.90
2018-07-26T03:38:13.842Z,937.90
2018-07-26T03:39:13.526Z,937.92
2018-07-26T03:40:13.537Z,937.88
2018-07-26T03:41:13.537Z,937.93
2018-07-26T03:42:13.606Z,937.92
2018-07-26T03:43:13.778Z,937.86
2018-07-26T03:44:13.599Z,937.88
2018-07-26T03:45:13.612Z,937.85
2018-07-26T03:46:13.616Z,937.81
2018-07-26T03:47:13.676Z,937.83
2018-07-26T03:48:13.697Z,937.81
2018-07-26T03:49:13.779Z,937.80
2018-07-26T03:50:14.055Z,937.80
2018-07-26T03:51:13.872Z,937.75
2018-07-26T03:52:13.733Z,937.72
2018-07-26T03:53:13.832Z,937.71
2018-07-26T03:54:13.761Z,937.70
2018-07-26T03:55:13.963Z,937.70
2018-07-26T03:56:13.752Z,937.67
2018-07-26T03:57:13.757Z,937.62
2018-07-26T03:58:13.811Z,937.63
2018-07-26T03:59:13.771Z,937.58
2018-07-26T04:00:13.838Z,937.58
2018-07-26T04:01:14.131Z,937.55
2018-07-26T04:02:13.943Z,937.57
2018-07-26T04:03:13.839Z,937.57
2018-07-26T04:04:13.852Z,937.54
2018-07-26T04:05:13.985Z,937.56
2018-07-26T04:06:14.119Z,937.52
2018-07-26T04:07:13.881Z,937.50
2018-07-26T04:08:13.901Z,937.48
2018-07-26T04:09:14.069Z,937.49
2018-07-26T04:10:13.926Z,937.47
2018-07-26T04:11:14.152Z,937.46
2018-07-26T04:12:13.947Z,937.49
2018-07-26T04:13:13.971Z,937.52
2018-07-26T04:14:13.965Z,937.47
2018-07-26T04:15:14.110Z,937.50
2018-07-26T04:16:14.188Z,937.47
2018-07-26T04:17:14.139Z,937.47
2018-07-26T04:18:14.022Z,937.49
2018-07-26T04:19:14.046Z,937.44
2018-07-26T04:20:14.052Z,937.47
2018-07-26T04:21:14.109Z,937.49
2018-07-26T04:22:14.082Z,937.48
2018-07-26T04:23:14.094Z,937.49
2018-07-26T04:24:14.122Z,937.46
2018-07-26T04:25:14.129Z,937.44
2018-07-26T04:26:14.184Z,937.44
2018-07-26T04:27:14.150Z,937.41
2018-07-26T04:28:14.354Z,937.42
2018-07-26T04:29:14.184Z,937.37
2018-07-26T04:30:14.182Z,937.39
2018-07-26T04:31:14.185Z,937.41
2018-07-26T04:32:14.309Z,937.43
2018-07-26T04:33:14.433Z,937.40
2018-07-26T04:34:14.216Z,937.40
2018-07-26T04:35:14.362Z,937.39
2018-07-26T04:36:14.379Z,937.38
2018-07-26T04:37:14.387Z,937.38
2018-07-26T04:38:14.572Z,937.39
2018-07-26T04:39:14.416Z,937.35
2018-07-26T04:40:14.298Z,937.36
2018-07-26T04:41:14.326Z,937.36
2018-07-26T04:42:14.339Z,937.36
2018-07-26T04:43:14.666Z,937.35
2018-07-26T04:44:14.350Z,937.36
2018-07-26T04:45:14.359Z,937.36
2018-07-26T04:46:14.388Z,937.37
2018-07-26T04:47:14.392Z,937.33
2018-07-26T04:48:14.637Z,937.33
2018-07-26T04:49:14.415Z,937.32
2018-07-26T04:50:14.442Z,937.28
2018-07-26T04:51:14.453Z,937.27
2018-07-26T04:52:14.574Z,937.28
2018-07-26T04:53:14.841Z,937.26
2018-07-26T04:54:14.604Z,937.28
2018-07-26T04:55:14.507Z,937.31
2018-07-26T04:56:14.488Z,937.33
2018-07-26T04:57:14.530Z,937.29
2018-07-26T04:58:14.700Z,937.27
2018-07-26T04:59:14.577Z,937.28
2018-07-26T05:00:14.670Z,937.26
2018-07-26T05:01:14.762Z,937.25
2018-07-26T05:02:14.586Z,937.25
2018-07-26T05:03:14.711Z,937.24
2018-07-26T05:04:14.723Z,937.23
2018-07-26T05:05:14.630Z,937.26
2018-07-26T05:06:14.878Z,937.23
2018-07-26T05:07:14.677Z,937.20
2018-07-26T05:08:14.719Z,937.18
2018-07-26T05:09:14.659Z,937.23
2018-07-26T05:10:14.676Z,937.22
2018-07-26T05:11:14.811Z,937.22
2018-07-26T05:12:14.933Z,937.18
2018-07-26T05:13:14.755Z,937.19
2018-07-26T05:14:14.711Z,937.20
2018-07-26T05:15:14.732Z,937.24
2018-07-26T05:16:14.758Z,937.19
2018-07-26T05:17:14.954Z,937.22
2018-07-26T05:18:14.767Z,937.16
2018-07-26T05:19:14.906Z,937.18
2018-07-26T05:20:14.805Z,937.19
2018-07-26T05:21:14.801Z,937.14
2018-07-26T05:22:14.939Z,937.18
2018-07-26T05:23:15.148Z,937.18
2018-07-26T05:24:14.850Z,937.16
2018-07-26T05:25:14.859Z,937.18
2018-07-26T05:26:14.877Z,937.18
2018-07-26T05:27:14.870Z,937.17
2018-07-26T05:28:15.099Z,937.21
2018-07-26T05:29:14.905Z,937.23
2018-07-26T05:30:14.909Z,937.20
2018-07-26T05:31:14.917Z,937.22
2018-07-26T05:32:14.949Z,937.18
2018-07-26T05:33:15.272Z,937.18
2018-07-26T05:34:14.964Z,937.17
2018-07-26T05:35:14.980Z,937.19
2018-07-26T05:36:14.988Z,937.14
2018-07-26T05:37:15.045Z,937.18
2018-07-26T05:38:15.218Z,937.11
2018-07-26T05:39:15.009Z,937.08
2018-07-26T05:40:15.159Z,937.07
2018-07-26T05:41:15.056Z,937.06
2018-07-26T05:42:15.058Z,937.08
2018-07-26T05:43:15.287Z,937.07
2018-07-26T05:44:15.096Z,937.06
2018-07-26T05:45:15.096Z,937.05
2018-07-26T05:46:15.227Z,937.06
2018-07-26T05:47:15.242Z,937.05
2018-07-26T05:48:15.351Z,937.01
2018-07-26T05:49:15.158Z,937.03
2018-07-26T05:50:15.176Z,937.05
2018-07-26T05:51:15.206Z,937.00
2018-07-26T05:52:15.303Z,937.02
2018-07-26T05:53:15.314Z,937.03
2018-07-26T05:54:15.462Z,937.00
2018-07-26T05:55:15.261Z,937.00
2018-07-26T05:56:15.264Z,937.02
2018-07-26T05:57:15.368Z,937.01
2018-07-26T05:58:15.260Z,937.00
2018-07-26T05:59:15.329Z,937.04
2018-07-26T06:00:15.348Z,937.03
2018-07-26T06:01:15.507Z,937.06
2018-07-26T06:02:15.318Z,937.05
2018-07-26T06:03:15.319Z,937.05
2018-07-26T06:04:15.329Z,937.03
2018-07-26T06:05:15.335Z,937.01
2018-07-26T06:06:15.599Z,936.99
2018-07-26T06:07:15.355Z,936.99
2018-07-26T06:08:15.396Z,936.96
2018-07-26T06:09:15.403Z,936.99
2018-07-26T06:10:15.416Z,936.96
2018-07-26T06:11:15.631Z,936.95
2018-07-26T06:12:15.482Z,936.93
2018-07-26T06:13:15.456Z,936.93
2018-07-26T06:14:15.447Z,936.94
2018-07-26T06:15:15.511Z,937.01
2018-07-26T06:16:15.696Z,936.98
2018-07-26T06:17:15.597Z,937.00
2018-07-26T06:18:15.515Z,936.99
2018-07-26T06:19:15.510Z,936.97
2018-07-26T06:20:15.583Z,936.98
2018-07-26T06:21:15.598Z,936.93
2018-07-26T06:22:15.608Z,936.94
2018-07-26T06:23:15.581Z,936.93
2018-07-26T06:24:15.585Z,936.90
2018-07-26T06:25:15.805Z,936.90
2018-07-26T06:26:15.618Z,936.85
2018-07-26T06:27:15.626Z,936.85
2018-07-26T06:28:15.777Z,936.88
2018-07-26T06:29:15.655Z,936.87
2018-07-26T06:30:15.981Z,936.88
2018-07-26T06:31:15.796Z,936.87
2018-07-26T06:32:15.692Z,936.85
2018-07-26T06:33:15.789Z,936.87
2018-07-26T06:34:15.704Z,936.90
2018-07-26T06:35:16.046Z,936.85
2018-07-26T06:36:15.733Z,936.84
2018-07-26T06:37:15.740Z,936.82
2018-07-26T06:38:15.763Z,936.83
2018-07-26T06:39:15.771Z,936.77
2018-07-26T06:40:15.838Z,936.78
2018-07-26T06:41:15.913Z,936.81
2018-07-26T06:42:16.004Z,936.81
2018-07-26T06:43:15.942Z,936.82
2018-07-26T06:44:15.838Z,936.80
2018-07-26T06:45:15.837Z,936.83
2018-07-26T06:46:15.867Z,936.78
2018-07-26T06:47:15.925Z,936.82
2018-07-26T06:48:15.873Z,936.81
2018-07-26T06:49:16.101Z,936.83
2018-07-26T06:50:15.903Z,936.86
2018-07-26T06:51:15.915Z,936.86
2018-07-26T06:52:15.926Z,936.83
2018-07-26T06:53:15.928Z,936.83
2018-07-26T06:54:16.161Z,936.82
2018-07-26T06:55:15.953Z,936.80
2018-07-26T06:56:16.026Z,936.82
2018-07-26T06:57:15.980Z,936.78
2018-07-26T06:58:16.009Z,936.76
2018-07-26T06:59:16.214Z,936.77
2018-07-26T07:00:16.026Z,936.81
2018-07-26T07:01:16.163Z,936.78
2018-07-26T07:02:16.042Z,936.77
2018-07-26T07:03:16.190Z,936.80
2018-07-26T07:04:16.299Z,936.82
2018-07-26T07:05:16.087Z,936.83
2018-07-26T07:06:16.102Z,936.77
2018-07-26T07:07:16.101Z,936.80
2018-07-26T07:08:16.143Z,936.75
2018-07-26T07:09:16.384Z,936.73
2018-07-26T07:10:16.163Z,936.74
2018-07-26T07:11:16.213Z,936.75
2018-07-26T07:12:16.178Z,936.75
2018-07-26T07:13:16.179Z,936.76
2018-07-26T07:14:16.194Z,936.73
2018-07-26T07:15:16.411Z,936.80
2018-07-26T07:16:16.222Z,936.76
2018-07-26T07:17:16.236Z,936.72
2018-07-26T07:18:16.294Z,936.72
2018-07-26T07:19:16.267Z,936.73
2018-07-26T07:20:16.279Z,936.70
2018-07-26T07:21:16.486Z,936.71
2018-07-26T07:22:16.310Z,936.68
2018-07-26T07:23:16.328Z,936.67
2018-07-26T07:24:16.327Z,936.67
2018-07-26T07:25:16.335Z,936.63
2018-07-26T07:26:16.342Z,936.62
2018-07-26T07:27:16.555Z,936.61
2018-07-26T07:28:16.493Z,936.61
2018-07-26T07:29:16.419Z,936.65
2018-07-26T07:30:16.389Z,936.62
2018-07-26T07:31:16.406Z,936.65
2018-07-26T07:32:16.739Z,936.68
2018-07-26T07:33:16.472Z,936.67
2018-07-26T07:34:16.570Z,936.69
2018-07-26T07:35:16.473Z,936.64
2018-07-26T07:36:16.460Z,936.66
2018-07-26T07:37:16.716Z,936.65
2018-07-26T07:38:16.484Z,936.65
2018-07-26T07:39:16.628Z,936.66
2018-07-26T07:40:16.509Z,936.70
2018-07-26T07:41:16.531Z,936.67
2018-07-26T07:42:16.715Z,936.67
2018-07-26T07:43:16.559Z,936.64
2018-07-26T07:44:16.777Z,936.61
2018-07-26T07:45:16.592Z,936.65
2018-07-26T07:46:16.602Z,936.65
2018-07-26T07:47:16.661Z,936.65
2018-07-26T07:48:16.653Z,936.61
2018-07-26T07:49:16.820Z,936.60
2018-07-26T07:50:16.633Z,936.64
2018-07-26T07:51:16.692Z,936.65
2018-07-26T07:52:16.672Z,936.67
2018-07-26T07:53:16.689Z,936.62
2018-07-26T07:54:16.992Z,936.63
2018-07-26T07:55:16.704Z,936.64
2018-07-26T07:56:16.713Z,936.61
2018-07-26T07:57:16.848Z,936.61
2018-07-26T07:58:16.745Z,936.66
2018-07-26T07:59:16.959Z,936.62
2018-07-26T08:00:16.761Z,936.61
2018-07-26T08:01:16.776Z,936.61
2018-07-26T08:02:16.779Z,936.61
2018-07-26T08:03:16.802Z,936.59
2018-07-26T08:04:17.005Z,936.58
2018-07-26T08:05:16.852Z,936.60
2018-07-26T08:06:16.822Z,936.60
2018-07-26T08:07:16.854Z,936.62
2018-07-26T08:08:16.896Z,936.56
2018-07-26T08:09:17.078Z,936.55
2018-07-26T08:10:16.880Z,936.52
2018-07-26T08:11:16.927Z,936.54
2018-07-26T08:12:16.917Z,936.52
2018-07-26T08:13:16.954Z,936.54
2018-07-26T08:14:17.136Z,936.54
2018-07-26T08:15:16.941Z,936.58
2018-07-26T08:16:16.953Z,936.57
2018-07-26T08:17:16.966Z,936.59
2018-07-26T08:18:16.984Z,936.60
2018-07-26T08:19:17.188Z,936.60
2018-07-26T08:20:17.132Z,936.60
2018-07-26T08:21:17.068Z,936.61
2018-07-26T08:22:17.026Z,936.61
2018-07-26T08:23:17.051Z,936.60
2018-07-26T08:24:17.256Z,936.60
2018-07-26T08:25:17.085Z,936.60
2018-07-26T08:26:17.096Z,936.61
2018-07-26T08:27:17.088Z,936.64
2018-07-26T08:28:17.116Z,936.61
2018-07-26T08:29:17.240Z,936.58
2018-07-26T08:30:17.259Z,936.58
2018-07-26T08:31:17.267Z,936.61
2018-07-26T08:32:17.279Z,936.62
2018-07-26T08:33:17.495Z,936.60
2018-07-26T08:34:17.300Z,936.55
2018-07-26T08:35:17.322Z,936.57
2018-07-26T08:36:17.204Z,936.57
2018-07-26T08:37:17.259Z,936.54
2018-07-26T08:38:17.432Z,936.55
2018-07-26T08:39:17.365Z,936.59
2018-07-26T08:40:17.261Z,936.55
2018-07-26T08:41:17.261Z,936.58
2018-07-26T08:42:17.267Z,936.59
2018-07-26T08:43:17.501Z,936.59
2018-07-26T08:44:17.309Z,936.54
2018-07-26T08:45:17.312Z,936.56
2018-07-26T08:46:17.324Z,936.55
2018-07-26T08:47:17.353Z,936.58
2018-07-26T08:48:17.596Z,936.55
2018-07-26T08:49:17.382Z,936.56
2018-07-26T08:50:17.379Z,936.63
2018-07-26T08:51:17.401Z,936.63
2018-07-26T08:52:17.501Z,936.59
2018-07-26T08:53:17.606Z,936.60
2018-07-26T08:54:17.483Z,936.61
2018-07-26T08:55:17.558Z,936.57
2018-07-26T08:56:17.577Z,936.53
2018-07-26T08:57:17.464Z,936.52
2018-07-26T08:58:17.684Z,936.51
2018-07-26T08:59:17.489Z,936.52
2018-07-26T09:00:17.543Z,936.51
2018-07-26T09:01:17.516Z,936.47
2018-07-26T09:02:17.535Z,936.41
2018-07-26T09:03:17.735Z,936.42
2018-07-26T09:04:17.552Z,936.41
2018-07-26T09:05:17.571Z,936.41
2018-07-26T09:06:17.580Z,936.37
2018-07-26T09:07:17.585Z,936.37
2018-07-26T09:08:17.790Z,936.37
2018-07-26T09:09:17.601Z,936.39
2018-07-26T09:10:17.618Z,936.39
2018-07-26T09:11:17.625Z,936.38
2018-07-26T09:12:17.632Z,936.39
2018-07-26T09:13:17.852Z,936.43
2018-07-26T09:14:17.655Z,936.48
2018-07-26T09:15:17.672Z,936.52
2018-07-26T09:16:17.673Z,936.53
2018-07-26T09:17:17.873Z,936.53
2018-07-26T09:18:17.723Z,936.53
2018-07-26T09:19:17.914Z,936.47
2018-07-26T09:20:17.728Z,936.47
2018-07-26T09:21:17.760Z,936.42
2018-07-26T09:22:17.771Z,936.45
2018-07-26T09:23:17.893Z,936.43
2018-07-26T09:24:17.848Z,936.46
2018-07-26T09:25:17.989Z,936.42
2018-07-26T09:26:17.860Z,936.44
2018-07-26T09:27:17.820Z,936.39
2018-07-26T09:28:17.865Z,936.43
2018-07-26T09:29:17.848Z,936.40
2018-07-26T09:30:17.852Z,936.40
2018-07-26T09:31:18.067Z,936.44
2018-07-26T09:32:17.874Z,936.43
2018-07-26T09:33:17.947Z,936.44
2018-07-26T09:34:17.905Z,936.49
2018-07-26T09:35:18.051Z,936.52
2018-07-26T09:36:18.125Z,936.52
2018-07-26T09:37:17.943Z,936.56
2018-07-26T09:38:17.957Z,936.57
2018-07-26T09:39:17.947Z,936.61
2018-07-26T09:40:17.987Z,936.65
2018-07-26T09:41:17.992Z,936.65
2018-07-26T09:42:18.229Z,936.67
2018-07-26T09:43:18.122Z,936.71
2018-07-26T09:44:18.056Z,936.74
2018-07-26T09:45:18.145Z,936.76
2018-07-26T09:46:18.042Z,936.78
2018-07-26T09:47:18.258Z,936.78
2018-07-26T09:48:18.069Z,936.79
2018-07-26T09:49:18.192Z,936.83
2018-07-26T09:50:18.089Z,936.86
2018-07-26T09:51:18.217Z,936.87
2018-07-26T09:52:18.123Z,936.84
2018-07-26T09:53:18.354Z,936.87
2018-07-26T09:54:18.139Z,936.84
2018-07-26T09:55:18.266Z,936.84
2018-07-26T09:56:18.144Z,936.86
2018-07-26T09:57:18.177Z,936.87
2018-07-26T09:58:18.377Z,936.90
2018-07-26T09:59:18.207Z,936.95
2018-07-26T10:00:18.242Z,936.95
2018-07-26T10:01:18.213Z,936.99
2018-07-26T10:02:18.341Z,937.01
2018-07-26T10:03:18.447Z,937.06
2018-07-26T10:04:18.255Z,937.07
2018-07-26T10:05:18.383Z,937.07
2018-07-26T10:06:18.266Z,937.07
2018-07-26T10:07:18.316Z,937.09
2018-07-26T10:08:18.501Z,937.12
2018-07-26T10:09:18.317Z,937.12
2018-07-26T10:10:18.301Z,937.10
2018-07-26T10:11:18.448Z,937.12
2018-07-26T10:12:18.342Z,937.20
2018-07-26T10:13:18.565Z,937.22
2018-07-26T10:14:18.483Z,937.25
2018-07-26T10:15:18.405Z,937.25
2018-07-26T10:16:18.376Z,937.28
2018-07-26T10:17:18.399Z,937.25
2018-07-26T10:18:18.622Z,937.31
2018-07-26T10:19:18.421Z,937.33
2018-07-26T10:20:18.590Z,937.36
2018-07-26T10:21:18.574Z,937.34
2018-07-26T10:22:18.457Z,937.40
2018-07-26T10:23:18.677Z,937.43
2018-07-26T10:24:18.490Z,937.42
2018-07-26T10:25:18.522Z,937.42
2018-07-26T10:26:18.509Z,937.41
2018-07-26T10:27:18.508Z,937.41
2018-07-26T10:28:18.732Z,937.44
2018-07-26T10:29:18.554Z,937.40
2018-07-26T10:30:18.568Z,937.43
2018-07-26T10:31:18.552Z,937.41
2018-07-26T10:32:18.592Z,937.41
2018-07-26T10:33:18.597Z,937.35
2018-07-26T10:34:18.843Z,937.32
2018-07-26T10:35:18.600Z,937.36
2018-07-26T10:36:18.671Z,937.38
2018-07-26T10:37:18.648Z,937.38
2018-07-26T10:38:18.651Z,937.39
2018-07-26T10:39:18.852Z,937.37
2018-07-26T10:40:18.682Z,937.37
2018-07-26T10:41:18.706Z,937.40
2018-07-26T10:42:18.830Z,937.39
2018-07-26T10:43:18.712Z,937.39
2018-07-26T10:44:18.834Z,937.38
2018-07-26T10:45:18.744Z,937.38
2018-07-26T10:46:18.771Z,937.40
2018-07-26T10:47:18.898Z,937.42
2018-07-26T10:48:18.779Z,937.43
2018-07-26T10:49:19.069Z,937.42
2018-07-26T10:50:18.946Z,937.43
2018-07-26T10:51:18.863Z,937.41
2018-07-26T10:52:18.885Z,937.46
2018-07-26T10:53:18.853Z,937.44
2018-07-26T10:54:19.113Z,937.47
2018-07-26T10:55:19.029Z,937.52
2018-07-26T10:56:19.026Z,937.46
2018-07-26T10:57:18.927Z,937.50
2018-07-26T10:58:18.921Z,937.51
2018-07-26T10:59:18.929Z,937.49
2018-07-26T11:00:19.391Z,937.48
2018-07-26T11:01:19.039Z,937.45
2018-07-26T11:02:18.996Z,937.47
2018-07-26T11:03:19.165Z,937.47
2018-07-26T11:04:19.128Z,937.44
2018-07-26T11:05:19.279Z,937.47
2018-07-26T11:06:19.088Z,937.45
2018-07-26T11:07:19.051Z,937.50
2018-07-26T11:08:19.092Z,937.42
2018-07-26T11:09:19.105Z,937.43
2018-07-26T11:10:19.320Z,937.45
2018-07-26T11:11:19.167Z,937.39
2018-07-26T11:12:19.270Z,937.43
2018-07-26T11:13:19.176Z,937.40
2018-07-26T11:14:19.174Z,937.46
2018-07-26T11:15:19.432Z,937.44
2018-07-26T11:16:19.215Z,937.48
2018-07-26T11:17:19.225Z,937.49
2018-07-26T11:18:19.253Z,937.51
2018-07-26T11:19:19.273Z,937.56
2018-07-26T11:20:19.367Z,937.59
2018-07-26T11:21:19.296Z,937.57
2018-07-26T11:22:19.321Z,937.58
2018-07-26T11:23:19.340Z,937.62
2018-07-26T11:24:19.536Z,937.61
2018-07-26T11:25:19.566Z,937.60
2018-07-26T11:26:19.503Z,937.59
2018-07-26T11:27:19.395Z,937.64
2018-07-26T11:28:19.413Z,937.63
2018-07-26T11:29:19.553Z,937.64
2018-07-26T11:30:19.646Z,937.63
2018-07-26T11:31:19.508Z,937.67
2018-07-26T11:32:19.664Z,937.70
2018-07-26T11:33:19.493Z,937.68
2018-07-26T11:34:19.517Z,937.71
2018-07-26T11:35:19.858Z,937.67
2018-07-26T11:36:19.552Z,937.71
2018-07-26T11:37:19.577Z,937.70
2018-07-26T11:38:19.705Z,937.67
2018-07-26T11:39:19.627Z,937.67
2018-07-26T11:40:19.838Z,937.65
2018-07-26T11:41:19.702Z,937.64
2018-07-26T11:42:19.755Z,937.65
2018-07-26T11:43:19.668Z,937.67
2018-07-26T11:44:19.705Z,937.64
2018-07-26T11:45:20.085Z,937.65
2018-07-26T11:46:19.734Z,937.58
2018-07-26T11:47:19.749Z,937.61
2018-07-26T11:48:19.760Z,937.53
2018-07-26T11:49:19.904Z,937.59
2018-07-26T11:50:19.800Z,937.61
2018-07-26T11:51:20.028Z,937.59
2018-07-26T11:52:19.853Z,937.60
2018-07-26T11:53:19.980Z,937.56
2018-07-26T11:54:19.868Z,937.58
2018-07-26T11:55:19.892Z,937.61
2018-07-26T11:56:20.013Z,937.61
2018-07-26T11:57:19.934Z,937.69
2018-07-26T11:58:19.945Z,937.71
2018-07-26T11:59:19.988Z,937.70
2018-07-26T12:00:19.993Z,937.79
2018-07-26T12:01:20.214Z,937.78
2018-07-26T12:02:20.031Z,937.81
2018-07-26T12:03:20.055Z,937.82
2018-07-26T12:04:20.073Z,937.86
2018-07-26T12:05:20.085Z,937.86
2018-07-26T12:06:20.298Z,937.91
2018-07-26T12:07:20.168Z,937.89
2018-07-26T12:09:20.269Z,937.90
2018-07-26T12:10:20.210Z,937.94
2018-07-26T12:11:20.508Z,937.95
2018-07-26T12:12:20.249Z,937.98
2018-07-26T12:13:20.212Z,937.97
2018-07-26T12:14:20.242Z,938.00
2018-07-26T12:15:20.376Z,938.00
2018-07-26T12:16:20.469Z,938.06
2018-07-26T12:17:20.294Z,938.03
2018-07-26T12:18:20.431Z,938.06
2018-07-26T12:19:20.451Z,938.07
2018-07-26T12:20:20.342Z,938.07
2018-07-26T12:21:20.591Z,938.05
2018-07-26T12:22:20.390Z,938.07
2018-07-26T12:23:20.543Z,938.05
2018-07-26T12:24:20.533Z,938.08
2018-07-26T12:25:20.418Z,938.09
2018-07-26T12:26:20.708Z,938.02
2018-07-26T12:27:20.487Z,938.07
2018-07-26T12:28:20.536Z,938.06
2018-07-26T12:29:20.496Z,938.09
2018-07-26T12:30:20.518Z,938.13
2018-07-26T12:31:20.793Z,938.12
2018-07-26T12:32:20.570Z,938.14